Meteoblue:





Windguru:








TAF EPZG

 

METAR EPZG

EPZG 241930Z 04001KT CAVOK 17/15 Q1026

Location: EPZG
ZIELONA GORA - POLAND
Latitude: 52°08'19"N - Longitude: 015°47'55"E.
Magnetic declination: 4.25°E
Sunrise: 03:56 UTC
Sunset: 18:01 UTC
Report emitted the day: 24, time 19:30 UTC
Wednesday 24 August 2016 21:30 local time.
Wind: True direction = 040 degrees, speed: 1 knots (2 km/h) (1 m/s).
Runway 06, length 8202 feet, altitude 194 feet: Cross Wind 0 KT Left - Centerline Wind 1 KT front.
Runway 24, length 8202 feet, altitude 187 feet: Cross Wind 0 KT Right - Centerline Wind 1 KT rear.
CAVOK conditions: Visibility 10 km or more,
no cloud below 5,000 feet or below the MSA (whichever is greater),
no cumulonimbus, and no significant weather phenomena in
the aerodrome or its vicinity.
Temperature: 17 degrees Celsius (63 Fahrenheit). Dewpoint: 15 degrees Celsius (59 Fahrenheit). Relative humidity 88.02 %.
QNH (Sea-level pressure): 1026 hPa (30.30 inches).
0:06
Metar reliability - Emission time in hours and minutes
NOAA
Visual Flight Rules
1 KT
Wind
17/15
Temperature / Dewpoint
>10Km
Minimum horizontal visibility
 
Clear sky
1026
Sea level pressure
4.25°E
Magnetic declination
03:56 Z
Sunrise
18:01 Z
Sunset
Map
Show on Google Maps